createdAt,value
2023-03-06T00:00:29.769Z,98954.75
2023-03-06T00:02:57.257Z,98945.41
2023-03-06T00:05:24.030Z,98943.00
2023-03-06T00:07:50.664Z,98944.06
2023-03-06T00:10:20.810Z,98940.91
2023-03-06T00:12:47.594Z,98931.53
2023-03-06T00:15:14.694Z,98938.81
2023-03-06T00:17:41.525Z,98932.13
2023-03-06T00:20:10.804Z,98929.75
2023-03-06T00:22:37.645Z,98929.09
2023-03-06T00:25:05.493Z,98927.53
2023-03-06T00:27:32.696Z,98922.50
2023-03-06T00:30:00.902Z,98923.56
2023-03-06T00:32:28.326Z,98924.53
2023-03-06T00:34:55.703Z,98916.84
2023-03-06T00:37:24.363Z,98914.31
2023-03-06T00:39:51.416Z,98916.94
2023-03-06T00:42:19.263Z,98921.38
2023-03-06T00:44:46.760Z,98920.47
2023-03-06T00:47:17.093Z,98913.47
2023-03-06T00:49:46.909Z,98914.31
2023-03-06T00:52:13.713Z,98910.66
2023-03-06T00:54:40.717Z,98916.56
2023-03-06T00:57:07.883Z,98911.22
2023-03-06T00:59:34.856Z,98905.78
2023-03-06T01:02:01.488Z,98906.47
2023-03-06T01:04:28.007Z,98908.09
2023-03-06T01:06:54.476Z,98892.38
2023-03-06T01:09:21.155Z,98893.97
2023-03-06T01:11:47.589Z,98890.44
2023-03-06T01:14:16.689Z,98890.38
2023-03-06T01:16:43.108Z,98890.31
2023-03-06T01:19:09.592Z,98882.47
2023-03-06T01:21:35.952Z,98885.84
2023-03-06T01:24:02.436Z,98888.47
2023-03-06T01:26:28.897Z,98883.25
2023-03-06T01:28:57.427Z,98879.66
2023-03-06T01:31:25.082Z,98869.13
2023-03-06T01:33:51.912Z,98878.66
2023-03-06T01:36:18.708Z,98861.22
2023-03-06T01:38:45.115Z,98857.00
2023-03-06T01:41:15.541Z,98849.31
2023-03-06T01:43:46.075Z,98857.31
2023-03-06T01:46:44.915Z,98842.75
2023-03-06T01:49:14.785Z,98837.66
2023-03-06T01:51:48.596Z,98836.97
2023-03-06T01:54:22.626Z,98836.25
2023-03-06T01:56:52.885Z,98830.28
2023-03-06T01:59:21.681Z,98826.16
2023-03-06T02:01:48.339Z,98830.69
2023-03-06T02:04:16.027Z,98830.03
2023-03-06T02:06:45.867Z,98822.44
2023-03-06T02:09:13.387Z,98825.13
2023-03-06T02:11:43.919Z,98820.13
2023-03-06T02:14:16.154Z,98816.06
2023-03-06T02:16:43.439Z,98808.25
2023-03-06T02:19:49.165Z,98805.84
2023-03-06T02:22:15.541Z,98805.78
2023-03-06T02:25:07.892Z,98805.97
2023-03-06T02:27:34.729Z,98799.94
2023-03-06T02:30:06.383Z,98798.41
2023-03-06T02:32:32.800Z,98797.53
2023-03-06T02:34:59.266Z,98785.50
2023-03-06T02:37:28.369Z,98780.38
2023-03-06T02:40:02.817Z,98784.03
2023-03-06T02:42:29.600Z,98775.31
2023-03-06T02:44:58.940Z,98773.69
2023-03-06T02:47:25.413Z,98779.69
2023-03-06T02:49:51.880Z,98780.53
2023-03-06T02:52:18.252Z,98787.41
2023-03-06T02:54:44.808Z,98788.19
2023-03-06T02:57:11.249Z,98780.16
2023-03-06T02:59:37.665Z,98774.88
2023-03-06T03:02:04.129Z,98775.50
2023-03-06T03:04:30.482Z,98766.69
2023-03-06T03:06:56.904Z,98768.34
2023-03-06T03:09:23.262Z,98764.81
2023-03-06T03:11:49.649Z,98758.84
2023-03-06T03:14:16.655Z,98759.72
2023-03-06T03:16:43.037Z,98757.25
2023-03-06T03:19:09.430Z,98759.84
2023-03-06T03:21:35.869Z,98758.19
2023-03-06T03:24:02.385Z,98759.84
2023-03-06T03:26:28.882Z,98758.19
2023-03-06T03:28:55.275Z,98751.25
2023-03-06T03:31:21.773Z,98750.34
2023-03-06T03:33:48.203Z,98756.47
2023-03-06T03:36:14.567Z,98739.16
2023-03-06T03:38:40.929Z,98749.56
2023-03-06T03:41:07.341Z,98740.22
2023-03-06T03:43:33.788Z,98735.25
2023-03-06T03:46:00.220Z,98730.22
2023-03-06T03:48:26.674Z,98734.75
2023-03-06T03:50:53.026Z,98735.81
2023-03-06T03:53:19.576Z,98732.50
2023-03-06T03:55:49.088Z,98729.22
2023-03-06T03:58:15.650Z,98737.03
2023-03-06T04:00:41.987Z,98737.09
2023-03-06T04:03:08.411Z,98723.25
2023-03-06T04:05:34.916Z,98721.53
2023-03-06T04:08:03.038Z,98727.59
2023-03-06T04:10:29.546Z,98716.25
2023-03-06T04:12:56.030Z,98716.25
2023-03-06T04:15:22.499Z,98711.91
2023-03-06T04:17:48.952Z,98708.44
2023-03-06T04:20:15.639Z,98704.22
2023-03-06T04:22:42.051Z,98712.09
2023-03-06T04:25:08.943Z,98701.75
2023-03-06T04:27:35.282Z,98698.47
2023-03-06T04:30:03.945Z,98696.78
2023-03-06T04:32:30.426Z,98691.56
2023-03-06T04:34:56.832Z,98685.56
2023-03-06T04:37:25.288Z,98688.97
2023-03-06T04:39:52.046Z,98692.41
2023-03-06T04:42:18.682Z,98684.50
2023-03-06T04:44:45.433Z,98687.13
2023-03-06T04:47:12.332Z,98681.91
2023-03-06T04:49:38.670Z,98678.47
2023-03-06T04:52:05.291Z,98676.69
2023-03-06T04:54:32.220Z,98680.22
2023-03-06T04:56:58.732Z,98676.88
2023-03-06T04:59:25.177Z,98669.94
2023-03-06T05:01:52.115Z,98670.06
2023-03-06T05:04:19.563Z,98678.75
2023-03-06T05:06:45.923Z,98669.25
2023-03-06T05:09:12.328Z,98671.94
2023-03-06T05:11:38.658Z,98661.59
2023-03-06T05:14:05.064Z,98658.09
2023-03-06T05:16:31.592Z,98657.38
2023-03-06T05:18:57.952Z,98655.63
2023-03-06T05:21:24.324Z,98657.38
2023-03-06T05:23:50.726Z,98658.22
2023-03-06T05:26:17.110Z,98660.84
2023-03-06T05:28:43.516Z,98651.34
2023-03-06T05:31:09.880Z,98657.38
2023-03-06T05:33:36.680Z,98652.16
2023-03-06T05:36:03.376Z,98652.94
2023-03-06T05:38:29.764Z,98643.34
2023-03-06T05:40:56.093Z,98645.13
2023-03-06T05:43:22.490Z,98644.22
2023-03-06T05:45:50.411Z,98639.00
2023-03-06T05:48:16.998Z,98638.94
2023-03-06T05:50:43.382Z,98638.94
2023-03-06T05:53:10.694Z,98638.09
2023-03-06T05:55:37.090Z,98632.06
2023-03-06T05:58:03.519Z,98632.88
2023-03-06T06:00:29.951Z,98636.34
2023-03-06T06:02:56.338Z,98638.09
2023-03-06T06:05:22.734Z,98636.34
2023-03-06T06:07:49.086Z,98638.09
2023-03-06T06:10:15.773Z,98636.34
2023-03-06T06:12:42.149Z,98634.66
2023-03-06T06:15:08.836Z,98628.59
2023-03-06T06:17:35.185Z,98637.25
2023-03-06T06:20:01.644Z,98635.47
2023-03-06T06:22:29.522Z,98637.16
2023-03-06T06:24:55.993Z,98637.09
2023-03-06T06:27:22.368Z,98638.78
2023-03-06T06:29:51.598Z,98639.63
2023-03-06T06:32:18.126Z,98634.34
2023-03-06T06:34:44.483Z,98643.84
2023-03-06T06:37:10.920Z,98641.41
2023-03-06T06:39:37.254Z,98633.66
2023-03-06T06:42:28.223Z,98633.72
2023-03-06T06:44:50.220Z,98633.72
2023-03-06T06:49:54.715Z,98637.31
2023-03-06T06:52:21.916Z,98638.22
2023-03-06T06:54:48.422Z,98641.69
2023-03-06T06:57:15.578Z,98634.78
2023-03-06T06:59:42.493Z,98633.88
2023-03-06T07:02:12.314Z,98637.31
2023-03-06T07:04:44.283Z,98633.81
2023-03-06T07:07:15.932Z,98632.81
2023-03-06T07:09:42.449Z,98640.53
2023-03-06T07:12:09.214Z,98639.63
2023-03-06T07:14:36.171Z,98632.59
2023-03-06T07:17:02.746Z,98635.03
2023-03-06T07:19:29.295Z,98634.13
2023-03-06T07:21:55.967Z,98640.03
2023-03-06T07:24:22.648Z,98633.06
2023-03-06T07:26:49.440Z,98639.78
2023-03-06T07:29:15.995Z,98643.16
2023-03-06T07:31:42.690Z,98638.72
2023-03-06T07:34:13.028Z,98645.63
2023-03-06T07:36:40.441Z,98639.44
2023-03-06T07:39:10.309Z,98635.97
2023-03-06T07:41:37.118Z,98644.56
2023-03-06T07:44:03.768Z,98642.72
2023-03-06T07:46:30.359Z,98647.84
2023-03-06T07:48:58.145Z,98650.38
2023-03-06T07:51:24.875Z,98652.94
2023-03-06T07:53:51.406Z,98651.94
2023-03-06T07:56:17.942Z,98647.47
2023-03-06T07:58:46.073Z,98660.34
2023-03-06T08:01:20.935Z,98660.34
2023-03-06T08:03:50.027Z,98667.09
2023-03-06T08:06:27.312Z,98669.78
2023-03-06T08:08:55.578Z,98666.09
2023-03-06T08:11:24.637Z,98677.38
2023-03-06T08:13:53.064Z,98673.84
2023-03-06T08:16:25.207Z,98672.16
2023-03-06T08:18:52.126Z,98673.84
2023-03-06T08:21:23.955Z,98673.84
2023-03-06T08:23:51.559Z,98678.06
2023-03-06T08:26:24.432Z,98674.47
2023-03-06T08:28:52.773Z,98680.34
2023-03-06T08:31:36.046Z,98680.34
2023-03-06T08:34:09.170Z,98683.50
2023-03-06T08:36:36.073Z,98684.13
2023-03-06T08:39:03.320Z,98685.66
2023-03-06T08:41:30.234Z,98683.66
2023-03-06T08:43:57.038Z,98685.13
2023-03-06T08:46:26.858Z,98684.88
2023-03-06T08:48:53.818Z,98687.19
2023-03-06T08:51:22.908Z,98686.91
2023-03-06T08:53:50.474Z,98692.75
2023-03-06T08:56:19.281Z,98686.38
2023-03-06T08:58:46.334Z,98692.25
2023-03-06T09:01:28.374Z,98688.66
2023-03-06T09:03:57.264Z,98693.56
2023-03-06T09:06:24.074Z,98695.00
2023-03-06T09:08:52.516Z,98695.69
2023-03-06T09:11:21.358Z,98696.19
2023-03-06T09:13:48.173Z,98697.56
2023-03-06T09:16:14.804Z,98689.38
2023-03-06T09:18:41.576Z,98693.44
2023-03-06T09:21:09.494Z,98691.41
2023-03-06T09:23:37.191Z,98683.19
2023-03-06T09:26:03.950Z,98689.81
2023-03-06T09:28:30.491Z,98689.50
2023-03-06T09:30:57.392Z,98691.84
2023-03-06T09:33:24.559Z,98695.91
2023-03-06T09:35:54.734Z,98683.38
2023-03-06T09:38:24.068Z,98688.00
2023-03-06T09:41:05.754Z,98695.50
2023-03-06T09:43:37.225Z,98693.94
2023-03-06T09:46:23.421Z,98702.13
2023-03-06T09:49:18.310Z,98698.81
2023-03-06T09:52:10.418Z,98700.59
2023-03-06T09:54:44.393Z,98691.00
2023-03-06T09:57:22.470Z,98694.66
2023-03-06T09:59:54.087Z,98697.31
2023-03-06T10:02:47.034Z,98697.63
2023-03-06T10:05:23.289Z,98697.69
2023-03-06T10:08:25.473Z,98698.81
2023-03-06T10:11:02.208Z,98697.25
2023-03-06T10:13:48.499Z,98699.09
2023-03-06T10:16:25.459Z,98707.09
2023-03-06T10:18:53.170Z,98703.63
2023-03-06T10:21:44.288Z,98696.22
2023-03-06T10:24:28.128Z,98702.34
2023-03-06T10:27:13.162Z,98697.28
2023-03-06T10:30:01.625Z,98701.25
2023-03-06T10:32:46.052Z,98702.00
2023-03-06T10:35:22.167Z,98704.34
2023-03-06T10:37:49.298Z,98698.78
2023-03-06T10:40:21.673Z,98704.56
2023-03-06T10:42:49.507Z,98705.69
2023-03-06T10:45:18.694Z,98703.41
2023-03-06T10:47:46.093Z,98702.88
2023-03-06T10:50:28.810Z,98712.22
2023-03-06T10:53:05.581Z,98701.41
2023-03-06T10:55:34.717Z,98708.88
2023-03-06T10:58:25.783Z,98706.88
2023-03-06T11:01:20.262Z,98710.59
2023-03-06T11:03:47.814Z,98714.78
2023-03-06T11:06:30.357Z,98707.00
2023-03-06T11:09:15.492Z,98710.25
2023-03-06T11:11:41.979Z,98710.63
2023-03-06T11:14:20.877Z,98709.78
2023-03-06T11:16:53.129Z,98706.28
2023-03-06T11:19:27.231Z,98715.16
2023-03-06T11:22:01.185Z,98711.16
2023-03-06T11:24:37.053Z,98705.56
2023-03-06T11:27:22.322Z,98712.50
2023-03-06T11:29:51.048Z,98708.47
2023-03-06T11:32:23.457Z,98703.97
2023-03-06T11:35:28.365Z,98698.63
2023-03-06T11:38:06.788Z,98704.16
2023-03-06T11:40:56.022Z,98704.63
2023-03-06T11:43:35.336Z,98701.09
2023-03-06T11:46:15.293Z,98697.66
2023-03-06T11:48:53.223Z,98690.41
2023-03-06T11:51:26.865Z,98689.59
2023-03-06T11:53:55.034Z,98685.53
2023-03-06T11:56:31.790Z,98684.28
2023-03-06T11:59:38.449Z,98682.50
2023-03-06T12:02:20.085Z,98679.28
2023-03-06T12:05:05.605Z,98674.69
2023-03-06T12:07:56.106Z,98672.84
2023-03-06T12:10:34.892Z,98674.59
2023-03-06T12:13:27.209Z,98668.22
2023-03-06T12:16:06.164Z,98670.69
2023-03-06T12:19:03.616Z,98669.88
2023-03-06T12:21:41.928Z,98667.59
2023-03-06T12:24:30.271Z,98665.72
2023-03-06T12:27:05.199Z,98658.63
2023-03-06T12:29:37.742Z,98652.59
2023-03-06T12:32:40.275Z,98665.00
2023-03-06T12:35:36.228Z,98656.44
2023-03-06T12:38:11.598Z,98657.44
2023-03-06T12:40:50.336Z,98650.59
2023-03-06T12:43:44.730Z,98642.09
2023-03-06T12:46:17.483Z,98646.03
2023-03-06T12:48:48.777Z,98631.59
2023-03-06T12:51:20.393Z,98645.25
2023-03-06T12:53:48.192Z,98642.53
2023-03-06T12:56:17.007Z,98633.94
2023-03-06T12:59:02.268Z,98632.34
2023-03-06T13:02:06.598Z,98638.72
2023-03-06T13:04:45.515Z,98630.81
2023-03-06T13:07:45.230Z,98628.28
2023-03-06T13:10:30.442Z,98630.06
2023-03-06T13:13:01.052Z,98639.09
2023-03-06T13:15:27.448Z,98636.59
2023-03-06T13:17:53.898Z,98632.72
2023-03-06T13:20:26.866Z,98635.78
2023-03-06T13:22:53.307Z,98631.41
2023-03-06T13:25:19.896Z,98628.56
2023-03-06T13:28:00.859Z,98633.34
2023-03-06T13:30:36.587Z,98621.84
2023-03-06T13:33:32.895Z,98626.47
2023-03-06T13:36:00.438Z,98622.81
2023-03-06T13:38:35.923Z,98618.63
2023-03-06T13:41:20.806Z,98614.47
2023-03-06T13:43:48.539Z,98605.28
2023-03-06T13:46:26.042Z,98599.19
2023-03-06T13:49:07.683Z,98600.88
2023-03-06T13:51:42.985Z,98596.94
2023-03-06T13:54:16.904Z,98600.78
2023-03-06T13:57:00.940Z,98599.59
2023-03-06T14:00:08.130Z,98596.97
2023-03-06T14:03:06.626Z,98594.59
2023-03-06T14:05:42.288Z,98592.19
2023-03-06T14:08:27.543Z,98596.00
2023-03-06T14:11:03.864Z,98588.00
2023-03-06T14:13:45.523Z,98586.91
2023-03-06T14:16:21.557Z,98572.88
2023-03-06T14:18:51.230Z,98574.22
2023-03-06T14:21:32.199Z,98573.91
2023-03-06T14:24:01.286Z,98573.97
2023-03-06T14:26:32.896Z,98572.59
2023-03-06T14:29:00.952Z,98571.59
2023-03-06T14:31:41.103Z,98568.03
2023-03-06T14:34:15.329Z,98566.38
2023-03-06T14:36:41.675Z,98567.78
2023-03-06T14:39:13.638Z,98563.63
2023-03-06T14:41:40.812Z,98559.81
2023-03-06T14:44:27.448Z,98555.88
2023-03-06T14:47:40.903Z,98555.03
2023-03-06T14:50:32.432Z,98552.63
2023-03-06T14:53:19.055Z,98545.41
2023-03-06T14:56:06.357Z,98547.25
2023-03-06T14:58:44.045Z,98544.38
2023-03-06T15:01:13.444Z,98544.72
2023-03-06T15:03:48.194Z,98532.22
2023-03-06T15:06:22.443Z,98535.34
2023-03-06T15:09:02.145Z,98529.78
2023-03-06T15:11:56.036Z,98533.44
2023-03-06T15:14:31.432Z,98538.03
2023-03-06T15:17:17.234Z,98530.94
2023-03-06T15:19:46.005Z,98527.84
2023-03-06T15:22:27.039Z,98528.00
2023-03-06T15:25:06.044Z,98523.69
2023-03-06T15:27:32.499Z,98531.97
2023-03-06T15:30:23.102Z,98531.31
2023-03-06T15:32:49.455Z,98526.22
2023-03-06T15:35:36.608Z,98533.16
2023-03-06T15:38:22.296Z,98523.19
2023-03-06T15:40:59.180Z,98527.06
2023-03-06T15:43:26.578Z,98528.41
2023-03-06T15:45:58.809Z,98519.88
2023-03-06T15:48:25.912Z,98523.69
2023-03-06T15:50:52.305Z,98515.09
2023-03-06T15:53:20.178Z,98518.00
2023-03-06T15:55:46.869Z,98518.97
2023-03-06T15:58:17.096Z,98516.28
2023-03-06T16:00:44.291Z,98507.13
2023-03-06T16:03:11.860Z,98504.00
2023-03-06T16:05:38.565Z,98500.59
2023-03-06T16:08:05.877Z,98497.09
2023-03-06T16:10:43.911Z,98491.31
2023-03-06T16:13:16.027Z,98491.88
2023-03-06T16:15:48.674Z,98481.44
2023-03-06T16:18:15.191Z,98481.16
2023-03-06T16:20:41.627Z,98473.22
2023-03-06T16:23:10.484Z,98468.63
2023-03-06T16:25:38.838Z,98468.22
2023-03-06T16:28:07.373Z,98465.91
2023-03-06T16:30:35.353Z,98465.31
2023-03-06T16:33:02.201Z,98463.75
2023-03-06T16:35:28.743Z,98462.28
2023-03-06T16:37:55.181Z,98461.78
2023-03-06T16:40:27.685Z,98460.63
2023-03-06T16:42:56.356Z,98454.97
2023-03-06T16:45:23.785Z,98451.34
2023-03-06T16:47:50.396Z,98449.44
2023-03-06T16:50:29.413Z,98447.88
2023-03-06T16:52:57.226Z,98446.50
2023-03-06T16:55:25.077Z,98447.13
2023-03-06T16:57:51.921Z,98444.09
2023-03-06T17:00:19.547Z,98442.72
2023-03-06T17:02:48.971Z,98440.44
2023-03-06T17:05:15.703Z,98440.63
2023-03-06T17:07:42.114Z,98441.69
2023-03-06T17:10:16.196Z,98442.09
2023-03-06T17:12:43.260Z,98436.13
2023-03-06T17:15:10.892Z,98429.50
2023-03-06T17:17:37.933Z,98434.22
2023-03-06T17:20:07.470Z,98424.06
2023-03-06T17:22:35.520Z,98430.53
2023-03-06T17:25:04.719Z,98427.41
2023-03-06T17:27:31.117Z,98420.69
2023-03-06T17:29:58.064Z,98427.88
2023-03-06T17:32:25.283Z,98430.81
2023-03-06T17:34:51.712Z,98428.50
2023-03-06T17:37:18.333Z,98426.19
2023-03-06T17:39:44.771Z,98412.53
2023-03-06T17:42:11.147Z,98420.72
2023-03-06T17:44:38.452Z,98418.28
2023-03-06T17:47:05.663Z,98416.91
2023-03-06T17:49:32.556Z,98418.88
2023-03-06T17:52:03.560Z,98417.41
2023-03-06T17:54:30.104Z,98415.19
2023-03-06T17:57:00.943Z,98423.22
2023-03-06T17:59:28.264Z,98417.34
2023-03-06T18:01:58.750Z,98417.56
2023-03-06T18:04:25.526Z,98411.56
2023-03-06T18:06:51.918Z,98416.88
2023-03-06T18:09:18.554Z,98409.97
2023-03-06T18:11:45.278Z,98408.31
2023-03-06T18:14:11.858Z,98408.31
2023-03-06T18:16:38.362Z,98404.75
2023-03-06T18:19:04.817Z,98403.81
2023-03-06T18:21:31.326Z,98405.50
2023-03-06T18:23:57.817Z,98403.63
2023-03-06T18:26:26.817Z,98408.84
2023-03-06T18:28:55.692Z,98391.38
2023-03-06T18:31:27.599Z,98403.72
2023-03-06T18:33:56.508Z,98401.09
2023-03-06T18:36:25.242Z,98405.50
2023-03-06T18:38:52.017Z,98395.97
2023-03-06T18:41:20.158Z,98393.47
2023-03-06T18:43:54.880Z,98391.97
2023-03-06T18:46:22.262Z,98385.91
2023-03-06T18:51:30.261Z,98388.16
2023-03-06T18:54:00.873Z,98387.72
2023-03-06T18:56:27.478Z,98374.91
2023-03-06T18:58:54.285Z,98376.16
2023-03-06T19:01:22.421Z,98367.97
2023-03-06T19:03:49.001Z,98375.25
2023-03-06T19:06:17.081Z,98364.34
2023-03-06T19:08:43.578Z,98351.66
2023-03-06T19:11:15.441Z,98349.44
2023-03-06T19:13:42.463Z,98353.16
2023-03-06T19:16:09.508Z,98351.69
2023-03-06T19:18:36.073Z,98348.50
2023-03-06T19:21:14.897Z,98341.97
2023-03-06T19:23:42.150Z,98340.31
2023-03-06T19:26:08.996Z,98350.94
2023-03-06T19:28:37.459Z,98337.28
2023-03-06T19:31:25.047Z,98335.97
2023-03-06T19:33:53.113Z,98336.06
2023-03-06T19:36:23.529Z,98322.38
2023-03-06T19:38:56.673Z,98320.97
2023-03-06T19:41:23.311Z,98326.25
2023-03-06T19:43:52.891Z,98311.72
2023-03-06T19:46:20.213Z,98309.31
2023-03-06T19:48:47.063Z,98299.88
2023-03-06T19:51:14.252Z,98299.22
2023-03-06T19:53:41.871Z,98296.69
2023-03-06T19:56:15.712Z,98296.06
2023-03-06T19:58:42.551Z,98281.25
2023-03-06T20:01:15.099Z,98276.19
2023-03-06T20:03:42.192Z,98266.69
2023-03-06T20:06:14.209Z,98265.13
2023-03-06T20:08:41.754Z,98258.09
2023-03-06T20:11:22.353Z,98261.00
2023-03-06T20:13:49.148Z,98249.63
2023-03-06T20:16:16.922Z,98242.75
2023-03-06T20:18:43.485Z,98235.00
2023-03-06T20:21:10.161Z,98230.69
2023-03-06T20:23:36.603Z,98229.97
2023-03-06T20:26:05.949Z,98220.53
2023-03-06T20:28:32.894Z,98213.66
2023-03-06T20:30:59.461Z,98214.56
2023-03-06T20:33:26.969Z,98206.00
2023-03-06T20:35:54.137Z,98206.84
2023-03-06T20:38:20.749Z,98206.94
2023-03-06T20:40:47.455Z,98198.19
2023-03-06T20:43:13.868Z,98194.63
2023-03-06T20:45:40.320Z,98188.47
2023-03-06T20:48:06.891Z,98185.78
2023-03-06T20:50:33.327Z,98178.78
2023-03-06T20:52:59.818Z,98184.00
2023-03-06T20:55:26.337Z,98173.50
2023-03-06T20:57:52.950Z,98164.00
2023-03-06T21:00:20.986Z,98159.69
2023-03-06T21:02:47.676Z,98158.66
2023-03-06T21:05:14.310Z,98156.88
2023-03-06T21:07:40.883Z,98156.03
2023-03-06T21:10:08.412Z,98148.31
2023-03-06T21:12:34.912Z,98144.88
2023-03-06T21:15:01.474Z,98142.25
2023-03-06T21:17:28.146Z,98131.81
2023-03-06T21:19:54.657Z,98133.69
2023-03-06T21:22:21.097Z,98128.44
2023-03-06T21:24:47.607Z,98115.53
2023-03-06T21:27:14.085Z,98109.47
2023-03-06T21:29:40.518Z,98105.91
2023-03-06T21:32:07.056Z,98106.75
2023-03-06T21:34:33.487Z,98098.09
2023-03-06T21:36:59.958Z,98085.97
2023-03-06T21:39:26.520Z,98092.03
2023-03-06T21:41:53.034Z,98082.44
2023-03-06T21:44:19.664Z,98074.69
2023-03-06T21:46:46.141Z,98068.66
2023-03-06T21:49:12.635Z,98074.69
2023-03-06T21:51:39.245Z,98066.03
2023-03-06T21:54:06.889Z,98063.72
2023-03-06T21:56:33.899Z,98057.78
2023-03-06T21:59:00.737Z,98057.78
2023-03-06T22:01:28.839Z,98047.41
2023-03-06T22:03:55.911Z,98048.38
2023-03-06T22:06:25.305Z,98045.00
2023-03-06T22:08:52.297Z,98041.53
2023-03-06T22:11:20.433Z,98031.22
2023-03-06T22:13:50.380Z,98034.84
2023-03-06T22:16:17.737Z,98024.72
2023-03-06T22:18:46.202Z,98029.16
2023-03-06T22:21:14.948Z,98009.44
2023-03-06T22:23:41.640Z,98004.34
2023-03-06T22:26:11.216Z,98003.56
2023-03-06T22:28:38.832Z,98006.28
2023-03-06T22:31:12.807Z,98021.19
2023-03-06T22:33:39.714Z,98009.09
2023-03-06T22:36:08.970Z,97995.31
2023-03-06T22:38:37.511Z,97990.28
2023-03-06T22:41:05.918Z,97986.75
2023-03-06T22:43:33.046Z,97979.13
2023-03-06T22:46:04.315Z,97980.34
2023-03-06T22:48:31.315Z,97973.34
2023-03-06T22:51:25.771Z,97978.75
2023-03-06T22:53:52.552Z,97973.63
2023-03-06T22:56:21.191Z,97966.00
2023-03-06T22:58:48.151Z,97957.34
2023-03-06T23:01:17.553Z,97952.31
2023-03-06T23:03:46.727Z,97960.22
2023-03-06T23:06:19.200Z,97949.91
2023-03-06T23:08:50.431Z,97941.16
2023-03-06T23:11:19.559Z,97932.41
2023-03-06T23:13:46.517Z,97935.00
2023-03-06T23:16:13.239Z,97934.06
2023-03-06T23:18:40.895Z,97935.00
2023-03-06T23:21:13.896Z,97938.66
2023-03-06T23:23:40.684Z,97925.53
2023-03-06T23:26:08.223Z,97933.13
2023-03-06T23:28:35.003Z,97911.66
2023-03-06T23:31:10.401Z,97905.72
2023-03-06T23:33:38.714Z,97894.34
2023-03-06T23:36:07.368Z,97903.19
2023-03-06T23:38:34.145Z,97900.59
2023-03-06T23:41:21.087Z,97899.00
2023-03-06T23:43:48.527Z,97893.59
2023-03-06T23:46:15.760Z,97886.63
2023-03-06T23:48:43.279Z,97878.03
2023-03-06T23:51:14.814Z,97878.03
2023-03-06T23:53:41.655Z,97878.78
2023-03-06T23:56:08.653Z,97878.88
2023-03-06T23:58:35.815Z,97888.38
